San Rafeal, Colorado
Current Conditions -  °F | °C
As of 2:52 PM on Friday 31 Oct 2014 (Local Time) from KALS Reporting Station
Clear Clear  
Wind Chill: 62°   Ceiling: Unl
Heat Index: 62°   Visibility: 10mi
Dew Point: 23°   Wind: 16mph
Humidity: 22%   Direction: 140°SE
Pressure: 30.26"   Gusts: 22mph
Location:  37.1816°N, 106.262°W
Report Text: KALS 312052Z AUTO 14014G19KT 10SM CLR 17/M05 A3026 RMK AO2 SLP203 T01671050 56035
Loading
Personal Weather Stations






























Interactive Weather Map
Tropical Storm Tracking
New forecast layout! Learn more

10-Day Weather Forecast

Advertisements
Track Severe Weather on mobile